Tropical Cyclones
[Index]
Main Index Home Page Stock Weather Photos Extreme Storms Discussion Storm News and Storm Chasing Reports Tropical Cyclones / Hurricanes / Typhoons Weather Data and Links Wild Fires / Bushfires Weather Observation Techniques Weather Picture Catalogue Tornado Pictures and Reports Stock Video Footage and DVDs for sale
Season 2008-2009 Tropical Cyclone BILLY Track Map
Season 2008-2009 Summaries: [BoM-AU] [JTWC-AU] [JTWC-SIO] [JTWC-SPAC] [JTWC-SH]
<<- Previous TC | JTWC 2008-2009 Season | Next TC ->>

click for intensity scale information  Lat/long Grid: Show Hide

 Date Labels: Show Hide

Joint Typhoon Warning Centre Cyclone Data

Name: BILLY

17 Dec 2008 06:00 UTC to 04 Jan 2009 00:00 UTC

    date/time    lat    long     hPa   cat  kts
2008-12-17 06   12.8   127.4    1007         20          
2008-12-17 12   13.0   127.7    1007         20          
2008-12-17 18   13.4   127.9    1007         20          
2008-12-18 00   13.7   128.2    1004         25          
2008-12-18 06   14.0   128.6    1000         30          
2008-12-18 12   14.5   128.8    1000         30          
2008-12-18 18   14.8   128.8     996         35          
2008-12-19 00   14.7   128.7     989    1    45          
2008-12-19 06   14.6   128.6     989    1    45          
2008-12-19 12   14.7   128.5     989    1    45          
2008-12-19 18   14.9   128.3     989    1    45          
2008-12-20 00   14.9   127.9     996         35          
2008-12-20 06   15.1   127.4    1004         25          
2008-12-20 12   15.3   126.9    1004         25          
2008-12-20 18   15.3   126.5    1004         25          
2008-12-21 00   15.2   126.1    1004         25          
2008-12-21 06   15.2   125.8    1004         25          
2008-12-21 12   15.3   125.4    1004         25          
2008-12-21 18   15.3   124.9    1000         30          
2008-12-22 00   15.5   124.3     993    1    40          
2008-12-22 06   15.9   123.8     993    1    40          
2008-12-22 12   16.6   123.5     993    1    40          
2008-12-22 18   16.7   122.9     993    1    40          
2008-12-23 00   17.2   122.2     993    1    40          
2008-12-23 06   17.8   121.4     993    1    40          
2008-12-23 12   17.8   120.8     985    1    50          
2008-12-23 18   17.9   120.3     982    2    55          
2008-12-23 18   17.9   120.3     982    2    55          
2008-12-24 00   17.9   119.8     967    3    75          
2008-12-24 00   17.9   119.8     967    3    75          
2008-12-24 00   17.9   119.8     967    3    75          
2008-12-24 06   17.8   119.2     956    3    90          
2008-12-24 06   17.8   119.2     956    3    90          
2008-12-24 06   17.8   119.2     956    3    90          
2008-12-24 12   17.8   118.6     944    4   105          
2008-12-24 12   17.8   118.6     944    4   105          
2008-12-24 12   17.8   118.6     944    4   105          
2008-12-24 18   17.6   117.9     941    4   110          
2008-12-24 18   17.6   117.9     941    4   110          
2008-12-24 18   17.6   117.9     941    4   110          
2008-12-25 00   17.5   117.3     944    4   105          
2008-12-25 00   17.5   117.3     944    4   105          
2008-12-25 00   17.5   117.3     944    4   105          
2008-12-25 06   17.3   116.6     944    4   105          
2008-12-25 06   17.3   116.6     944    4   105          
2008-12-25 06   17.3   116.6     944    4   105          
2008-12-25 12   16.9   116.0     944    4   105          
2008-12-25 12   16.9   116.0     944    4   105          
2008-12-25 12   16.9   116.0     944    4   105          
2008-12-25 18   16.6   115.3     952    3    95          
2008-12-25 18   16.6   115.3     952    3    95          
2008-12-25 18   16.6   115.3     952    3    95          
2008-12-26 00   16.2   114.7     959    3    85          
2008-12-26 00   16.2   114.7     959    3    85          
2008-12-26 00   16.2   114.7     959    3    85          
2008-12-26 06   15.8   114.1     963    3    80          
2008-12-26 06   15.8   114.1     963    3    80          
2008-12-26 06   15.8   114.1     963    3    80          
2008-12-26 12   15.6   113.8     967    3    75          
2008-12-26 12   15.6   113.8     967    3    75          
2008-12-26 12   15.6   113.8     967    3    75          
2008-12-26 18   15.4   113.6     970    2    70          
2008-12-26 18   15.4   113.6     970    2    70          
2008-12-26 18   15.4   113.6     970    2    70          
2008-12-27 00   15.3   113.3     982    2    55          
2008-12-27 00   15.3   113.3     982    2    55          
2008-12-27 06   15.3   112.9     982    2    55          
2008-12-27 12   15.2   112.8     989    1    45          
2008-12-27 18   15.0   112.7     989    1    45          
2008-12-28 00   15.0   112.9     993    1    40          
2008-12-28 06   15.5   112.8    1000         30          
2008-12-28 12   16.1   112.7    1000         30          
2008-12-28 18   16.4   112.2    1004         25          
2008-12-29 00   16.5   111.3    1004         25          
2008-12-29 06   17.0   110.6    1004         25          
2008-12-29 12   17.2   109.6    1004         25          
2008-12-29 18   17.1   108.8    1004         25          
2008-12-30 00   16.9   108.0    1004         25          
2008-12-30 06   16.7   107.7    1007         20          
2008-12-30 12   16.5   107.3    1007         20          
2008-12-30 18   16.4   106.9    1007         20          
2008-12-31 00   16.2   106.3    1007         20          
2008-12-31 06   16.3   105.4    1007         20          
2008-12-31 12   16.0   104.5    1007         20          
2008-12-31 18   15.6   103.7    1007         20          
2009-01-01 00   15.2   102.5    1007         20          
2009-01-01 06   15.1   101.3    1007         20          
2009-01-01 12   15.0   100.1    1007         20          
2009-01-01 18   14.6    99.2    1007         20          
2009-01-02 00   14.3    98.2    1007         20          
2009-01-02 06   14.0    97.2    1007         20          
2009-01-02 12   13.8    96.0    1007         20          
2009-01-02 18   13.4    94.6    1007         20          
2009-01-03 00   13.0    93.1    1007         20          
2009-01-03 06   12.7    91.8    1007         20          
2009-01-03 12   12.6    91.2    1007         20          
2009-01-03 18   12.5    90.3    1007         20          
2009-01-04 00   12.4    89.0    1010         15          
Winds are 1-min average.

Tropical cyclone tracks developed by Michael Bath using data from the Joint Typhoon Warning Centre Best Tracks and Google Maps.


[Australian Severe Weather index] [Copyright Notice] [Email Contacts] [Search This Site] [Privacy Policy]
Document: tropical_cyclone_billy.htm Updated: 28 June 2017